Enchantment of the Seas — C6FZ7 — position and weather

sailwx.info

Track history (hours):
 
Tides and Currents Weather Stations Pressure Air Temp Water Temp Dewpoint Dewpoint Depression Visibility Wind Speed Wind Dir Waves Ship Positions

Enchantment of the Seas (Bahamas)

Last reported at 2015-Mar-27 10:12 UTC. Time now 2015-Mar-28 12:13 UTC.
Position N 28°24' W 080°33'.

Type: Passenger vessel. MMSI: 311733000.

Date/timePositionNaut miles runAvg speedWind from/ knotsBaromVisibWave heightAir tempDewpointWater temp
2015-Mar-27 10:12N 28°24' W 080°33'44 9.5
2015-Mar-27 05:33N 27°50' W 080°01'30 9.4
2015-Mar-27 02:24N 27°24' W 079°45'910.6
2015-Mar-27 01:33N 27°16' W 079°41'1010.6
2015-Mar-27 00:33N 27°06' W 079°36'1210.0
2015-Mar-26 23:24N 26°56' W 079°29'1210.0
2015-Mar-26 22:13N 26°46' W 079°22'910.1
2015-Mar-26 21:21N 26°39' W 079°17'  
2015-Mar-23 10:22N 28°24' W 080°34'1113.5
2015-Mar-23 09:33N 28°17' W 080°25'1917.0
2015-Mar-23 08:26N 28°04' W 080°09'1618.0
2015-Mar-23 07:33N 27°51' W 079°60'1918.7
2015-Mar-23 06:33N 27°36' W 079°48'1917.0
2015-Mar-23 05:28N 27°20' W 079°37'3316.6
2015-Mar-23 03:30N 26°52' W 079°17'4614.9
2015-Mar-23 00:25N 26°19' W 078°41'1214.4
2015-Mar-22 23:34N 26°12' W 078°30'22 0.5
2015-Mar-21 07:33N 26°23' W 078°51'7414.5
2015-Mar-21 02:29N 27°21' W 079°41'84 3.2
2015-Mar-20 00:09N 26°18' W 078°39'  
Track history (hours):
 
Tides and Currents Weather Stations Pressure Air Temp Water Temp Dewpoint Dewpoint Depression Visibility Wind Speed Wind Dir Waves Ship Positions

Enchantment of the Seas (Bahamas)

Last reported at 2015-Mar-27 10:12 UTC. Time now 2015-Mar-28 12:13 UTC.
Position N 28°24' W 080°33'.

Type: Passenger vessel. MMSI: 311733000.

Date/timePositionNaut miles runAvg speedWind from/ knotsBaromVisibWave heightAir tempDewpointWater temp
2015-Mar-27 10:12N 28°24' W 080°33'44 9.5
2015-Mar-27 05:33N 27°50' W 080°01'30 9.4
2015-Mar-27 02:24N 27°24' W 079°45'910.6
2015-Mar-27 01:33N 27°16' W 079°41'1010.6
2015-Mar-27 00:33N 27°06' W 079°36'1210.0
2015-Mar-26 23:24N 26°56' W 079°29'1210.0
2015-Mar-26 22:13N 26°46' W 079°22'910.1
2015-Mar-26 21:21N 26°39' W 079°17'  
2015-Mar-23 10:22N 28°24' W 080°34'1113.5
2015-Mar-23 09:33N 28°17' W 080°25'1917.0
2015-Mar-23 08:26N 28°04' W 080°09'1618.0
2015-Mar-23 07:33N 27°51' W 079°60'1918.7
2015-Mar-23 06:33N 27°36' W 079°48'1917.0
2015-Mar-23 05:28N 27°20' W 079°37'3316.6
2015-Mar-23 03:30N 26°52' W 079°17'4614.9
2015-Mar-23 00:25N 26°19' W 078°41'1214.4
2015-Mar-22 23:34N 26°12' W 078°30'22 0.5
2015-Mar-21 07:33N 26°23' W 078°51'7414.5
2015-Mar-21 02:29N 27°21' W 079°41'84 3.2
2015-Mar-20 00:09N 26°18' W 078°39'  

Dump ship's entire track history